sensor_id;sensor_type;location;lat;lon;timestamp;temperature;humidity
55151;DHT22;41041;43.162;20.538;2023-03-19T04:32:20;77.10;2227.20
55151;DHT22;41041;43.162;20.538;2023-03-19T09:54:21;281.80;2099.20
55151;DHT22;41041;43.162;20.538;2023-03-19T09:56:49;281.70;2176.00
55151;DHT22;41041;43.162;20.538;2023-03-19T09:59:15;281.80;2124.80
55151;DHT22;41041;43.162;20.538;2023-03-19T10:01:45;281.70;2099.20
55151;DHT22;41041;43.162;20.538;2023-03-19T10:15:09;282.40;2073.60
55151;DHT22;41041;43.162;20.538;2023-03-19T11:08:36;358.60;2048.00
55151;DHT22;41041;43.162;20.538;2023-03-19T11:11:02;358.70;2048.00
55151;DHT22;41041;43.162;20.538;2023-03-19T11:13:39;358.60;2022.40
55151;DHT22;41041;43.162;20.538;2023-03-19T12:26:37;410.40;1843.20
55151;DHT22;41041;43.162;20.538;2023-03-19T12:29:22;410.50;1843.20
55151;DHT22;41041;43.162;20.538;2023-03-19T12:39:37;435.30;1817.60
55151;DHT22;41041;43.162;20.538;2023-03-19T12:42:07;435.20;1868.80
55151;DHT22;41041;43.162;20.538;2023-03-19T12:44:43;435.20;1792.00
55151;DHT22;41041;43.162;20.538;2023-03-19T12:47:22;435.20;1766.40
55151;DHT22;41041;43.162;20.538;2023-03-19T12:50:05;435.20;1817.60
55151;DHT22;41041;43.162;20.538;2023-03-19T12:52:37;435.50;1792.00
55151;DHT22;41041;43.162;20.538;2023-03-19T12:58:35;435.70;1792.00
55151;DHT22;41041;43.162;20.538;2023-03-19T13:01:10;435.70;1766.40
55151;DHT22;41041;43.162;20.538;2023-03-19T13:09:27;436.00;1715.20
55151;DHT22;41041;43.162;20.538;2023-03-19T13:12:02;436.00;1766.40
55151;DHT22;41041;43.162;20.538;2023-03-19T13:14:37;436.10;1740.80
55151;DHT22;41041;43.162;20.538;2023-03-19T13:17:27;460.90;1740.80
55151;DHT22;41041;43.162;20.538;2023-03-19T13:19:54;460.90;1715.20
55151;DHT22;41041;43.162;20.538;2023-03-19T13:22:27;461.00;1689.60
55151;DHT22;41041;43.162;20.538;2023-03-19T13:24:55;461.10;1664.00
55151;DHT22;41041;43.162;20.538;2023-03-19T13:32:50;461.60;1638.40
55151;DHT22;41041;43.162;20.538;2023-03-19T13:51:20;486.40;1561.60
55151;DHT22;41041;43.162;20.538;2023-03-19T13:59:39;486.70;1510.40
55151;DHT22;41041;43.162;20.538;2023-03-19T14:07:27;486.60;1484.80
55151;DHT22;41041;43.162;20.538;2023-03-19T14:12:41;486.70;1536.00
55151;DHT22;41041;43.162;20.538;2023-03-19T14:17:40;486.70;1561.60
55151;DHT22;41041;43.162;20.538;2023-03-19T14:34:26;487.30;1484.80
55151;DHT22;41041;43.162;20.538;2023-03-19T14:37:03;487.20;1561.60
55151;DHT22;41041;43.162;20.538;2023-03-19T14:39:41;487.30;1484.80
55151;DHT22;41041;43.162;20.538;2023-03-19T14:42:19;512.00;1484.80
55151;DHT22;41041;43.162;20.538;2023-03-19T14:55:40;512.60;1459.20
55151;DHT22;41041;43.162;20.538;2023-03-19T14:58:11;512.60;1433.60
55151;DHT22;41041;43.162;20.538;2023-03-19T15:00:44;512.60;1459.20
55151;DHT22;41041;43.162;20.538;2023-03-19T15:03:34;512.60;1459.20
55151;DHT22;41041;43.162;20.538;2023-03-19T15:06:06;512.60;1484.80
55151;DHT22;41041;43.162;20.538;2023-03-19T15:08:36;512.80;1484.80
55151;DHT22;41041;43.162;20.538;2023-03-19T15:18:57;512.70;1408.00
55151;DHT22;41041;43.162;20.538;2023-03-19T15:21:23;512.60;1433.60
55151;DHT22;41041;43.162;20.538;2023-03-19T15:23:49;512.50;1433.60
55151;DHT22;41041;43.162;20.538;2023-03-19T15:26:15;512.50;1459.20
55151;DHT22;41041;43.162;20.538;2023-03-19T15:28:48;512.50;1433.60
55151;DHT22;41041;43.162;20.538;2023-03-19T15:31:21;512.50;1433.60
55151;DHT22;41041;43.162;20.538;2023-03-19T15:33:47;512.50;1408.00
55151;DHT22;41041;43.162;20.538;2023-03-19T15:39:14;512.70;1408.00
55151;DHT22;41041;43.162;20.538;2023-03-19T15:41:45;512.60;1382.40
55151;DHT22;41041;43.162;20.538;2023-03-19T15:44:30;512.60;1356.80
55151;DHT22;41041;43.162;20.538;2023-03-19T15:47:00;512.50;1382.40
55151;DHT22;41041;43.162;20.538;2023-03-19T15:49:37;512.50;1382.40
55151;DHT22;41041;43.162;20.538;2023-03-19T15:52:05;512.50;1382.40
55151;DHT22;41041;43.162;20.538;2023-03-19T15:54:33;512.50;1331.20
55151;DHT22;41041;43.162;20.538;2023-03-19T15:56:58;512.40;1356.80
55151;DHT22;41041;43.162;20.538;2023-03-19T15:59:27;512.30;1382.40
55151;DHT22;41041;43.162;20.538;2023-03-19T16:02:01;512.30;1382.40
55151;DHT22;41041;43.162;20.538;2023-03-19T16:04:29;512.20;1382.40
55151;DHT22;41041;43.162;20.538;2023-03-19T16:06:58;512.10;1356.80
55151;DHT22;41041;43.162;20.538;2023-03-19T16:09:30;512.10;1356.80
55151;DHT22;41041;43.162;20.538;2023-03-19T16:11:58;512.00;1331.20
55151;DHT22;41041;43.162;20.538;2023-03-19T16:14:36;487.30;1331.20
55151;DHT22;41041;43.162;20.538;2023-03-19T16:17:13;487.20;1356.80
55151;DHT22;41041;43.162;20.538;2023-03-19T16:19:51;487.00;1356.80
55151;DHT22;41041;43.162;20.538;2023-03-19T16:22:20;486.90;1356.80
55151;DHT22;41041;43.162;20.538;2023-03-19T16:24:48;486.80;1382.40
55151;DHT22;41041;43.162;20.538;2023-03-19T16:27:24;486.60;1408.00
55151;DHT22;41041;43.162;20.538;2023-03-19T16:29:58;486.50;1408.00
55151;DHT22;41041;43.162;20.538;2023-03-19T16:32:27;486.40;1408.00
55151;DHT22;41041;43.162;20.538;2023-03-19T16:35:04;461.70;1382.40
55151;DHT22;41041;43.162;20.538;2023-03-19T16:37:41;461.50;1408.00
55151;DHT22;41041;43.162;20.538;2023-03-19T16:42:43;461.40;1382.40
55151;DHT22;41041;43.162;20.538;2023-03-19T16:45:28;461.20;1382.40
55151;DHT22;41041;43.162;20.538;2023-03-19T16:47:56;461.00;1408.00
55151;DHT22;41041;43.162;20.538;2023-03-19T16:50:40;436.10;1356.80
55151;DHT22;41041;43.162;20.538;2023-03-19T16:53:28;436.00;1382.40
55151;DHT22;41041;43.162;20.538;2023-03-19T16:55:56;435.90;1382.40
55151;DHT22;41041;43.162;20.538;2023-03-19T16:58:34;435.70;1433.60
55151;DHT22;41041;43.162;20.538;2023-03-19T17:01:15;435.40;1459.20
55151;DHT22;41041;43.162;20.538;2023-03-19T17:03:43;435.20;1561.60
55151;DHT22;41041;43.162;20.538;2023-03-19T17:06:10;410.50;1638.40
55151;DHT22;41041;43.162;20.538;2023-03-19T17:08:37;435.20;1612.80
55151;DHT22;41041;43.162;20.538;2023-03-19T17:11:03;410.30;1638.40
55151;DHT22;41041;43.162;20.538;2023-03-19T17:13:32;410.00;1689.60
55151;DHT22;41041;43.162;20.538;2023-03-19T17:16:03;409.90;1638.40
55151;DHT22;41041;43.162;20.538;2023-03-19T17:18:37;409.80;1689.60
55151;DHT22;41041;43.162;20.538;2023-03-19T17:25:58;409.60;1689.60
55151;DHT22;41041;43.162;20.538;2023-03-19T17:28:24;384.80;1664.00
55151;DHT22;41041;43.162;20.538;2023-03-19T17:33:27;384.80;1715.20
55151;DHT22;41041;43.162;20.538;2023-03-19T17:35:55;384.50;1740.80
55151;DHT22;41041;43.162;20.538;2023-03-19T17:38:33;384.40;1740.80
55151;DHT22;41041;43.162;20.538;2023-03-19T17:40:59;384.10;1766.40
55151;DHT22;41041;43.162;20.538;2023-03-19T17:53:25;359.30;1664.00
55151;DHT22;41041;43.162;20.538;2023-03-19T17:55:51;359.10;1664.00
55151;DHT22;41041;43.162;20.538;2023-03-19T17:58:21;359.00;1715.20
55151;DHT22;41041;43.162;20.538;2023-03-19T18:00:48;358.80;1740.80
55151;DHT22;41041;43.162;20.538;2023-03-19T18:03:19;358.70;1817.60
55151;DHT22;41041;43.162;20.538;2023-03-19T18:15:42;358.60;1817.60
55151;DHT22;41041;43.162;20.538;2023-03-19T18:18:16;333.70;1792.00
55151;DHT22;41041;43.162;20.538;2023-03-19T18:20:43;333.60;1792.00
55151;DHT22;41041;43.162;20.538;2023-03-19T18:23:16;333.60;1843.20
55151;DHT22;41041;43.162;20.538;2023-03-19T18:25:45;333.50;1843.20
55151;DHT22;41041;43.162;20.538;2023-03-19T18:28:13;333.60;1843.20
55151;DHT22;41041;43.162;20.538;2023-03-19T18:30:43;333.40;1843.20
55151;DHT22;41041;43.162;20.538;2023-03-19T18:33:17;333.30;1868.80
55151;DHT22;41041;43.162;20.538;2023-03-19T18:35:45;333.20;1894.40
55151;DHT22;41041;43.162;20.538;2023-03-19T18:38:22;333.20;1894.40
55151;DHT22;41041;43.162;20.538;2023-03-19T18:40:49;333.20;1894.40
55151;DHT22;41041;43.162;20.538;2023-03-19T18:43:16;333.20;1894.40
55151;DHT22;41041;43.162;20.538;2023-03-19T18:45:48;333.10;1894.40
55151;DHT22;41041;43.162;20.538;2023-03-19T18:48:21;333.10;1868.80
55151;DHT22;41041;43.162;20.538;2023-03-19T18:50:48;333.00;1920.00
55151;DHT22;41041;43.162;20.538;2023-03-19T18:53:34;332.90;1920.00
55151;DHT22;41041;43.162;20.538;2023-03-19T18:55:59;308.10;1920.00
55151;DHT22;41041;43.162;20.538;2023-03-19T18:58:28;308.10;1920.00
55151;DHT22;41041;43.162;20.538;2023-03-19T19:01:00;308.10;1894.40
55151;DHT22;41041;43.162;20.538;2023-03-19T19:03:29;332.80;1868.80
55151;DHT22;41041;43.162;20.538;2023-03-19T19:05:56;308.10;1894.40
55151;DHT22;41041;43.162;20.538;2023-03-19T19:08:53;308.00;1894.40
55151;DHT22;41041;43.162;20.538;2023-03-19T19:11:20;307.90;1920.00
55151;DHT22;41041;43.162;20.538;2023-03-19T19:13:49;307.80;1945.60
55151;DHT22;41041;43.162;20.538;2023-03-19T19:16:23;307.70;1971.20
55151;DHT22;41041;43.162;20.538;2023-03-19T20:43:00;256.40;2150.40
55151;DHT22;41041;43.162;20.538;2023-03-19T20:45:36;256.20;2176.00
55151;DHT22;41041;43.162;20.538;2023-03-19T23:20:59;205.60;2252.80
55151;DHT22;41041;43.162;20.538;2023-03-19T23:23:49;205.40;2252.80
55151;DHT22;41041;43.162;20.538;2023-03-19T23:26:35;205.40;2252.80
55151;DHT22;41041;43.162;20.538;2023-03-19T23:29:04;205.20;2252.80
55151;DHT22;41041;43.162;20.538;2023-03-19T23:31:30;205.10;2252.80
55151;DHT22;41041;43.162;20.538;2023-03-19T23:33:57;205.10;2252.80
55151;DHT22;41041;43.162;20.538;2023-03-19T23:36:22;205.20;2252.80
55151;DHT22;41041;43.162;20.538;2023-03-19T23:38:48;205.20;2252.80
55151;DHT22;41041;43.162;20.538;2023-03-19T23:41:25;205.10;2252.80
55151;DHT22;41041;43.162;20.538;2023-03-19T23:43:52;205.20;2252.80
55151;DHT22;41041;43.162;20.538;2023-03-19T23:46:42;205.20;2252.80
55151;DHT22;41041;43.162;20.538;2023-03-19T23:49:13;205.20;2252.80
55151;DHT22;41041;43.162;20.538;2023-03-19T23:51:39;205.20;2252.80
55151;DHT22;41041;43.162;20.538;2023-03-19T23:54:38;205.10;2252.80
55151;DHT22;41041;43.162;20.538;2023-03-19T23:57:12;204.80;2252.80
55151;DHT22;41041;43.162;20.538;2023-03-19T23:59:40;180.10;2252.80
